Time;durP1;ratioP1;P1;durP2;ratioP2;P2;SDS_P1;SDS_P2;PMS_P1;PMS_P2;Temp;Humidity;BMP_temperature;BMP_pressure;BME280_temperature;BME280_humidity;BME280_pressure;Samples;Min_cycle;Max_cycle;Signal;HPM_P1;HPM_P2
2022/03/09 00:04:38;;;;;;;8.52;4.00;;;;;;;3.25;100.00;102425.56;10093954;28;20190;-70
2022/03/09 00:09:34;;;;;;;10.23;4.40;;;;;;;3.18;100.00;102444.59;10108394;28;20085;-71
2022/03/09 00:14:31;;;;;;;9.73;5.05;;;;;;;3.13;100.00;102436.31;10098923;28;20432;-69
2022/03/09 00:19:27;;;;;;;9.40;4.43;;;;;;;3.21;100.00;102443.31;10102727;28;20560;-70
2022/03/09 00:24:24;;;;;;;9.70;3.92;;;;;;;3.14;100.00;102449.63;10094463;28;20806;-69
2022/03/09 00:29:20;;;;;;;8.23;4.32;;;;;;;3.10;100.00;102455.69;10111137;28;20051;-70
2022/03/09 00:34:17;;;;;;;7.75;3.75;;;;;;;3.10;100.00;102451.13;10098094;28;20508;-70
2022/03/09 00:39:14;;;;;;;10.55;4.05;;;;;;;3.02;100.00;102459.53;10104042;28;20035;-70
2022/03/09 00:44:10;;;;;;;10.43;4.38;;;;;;;2.92;100.00;102440.28;10087127;28;20066;-70
2022/03/09 00:49:07;;;;;;;9.10;3.90;;;;;;;2.93;100.00;102444.66;10086813;28;20214;-70
2022/03/09 00:54:05;;;;;;;9.55;4.00;;;;;;;2.79;100.00;102448.56;10105215;28;20050;-70
2022/03/09 00:59:01;;;;;;;8.23;4.03;;;;;;;2.72;100.00;102446.75;10108813;28;20110;-73
2022/03/09 01:03:58;;;;;;;9.52;4.35;;;;;;;2.72;100.00;102435.94;10106259;28;20090;-72
2022/03/09 01:08:57;;;;;;;9.63;4.43;;;;;;;2.66;100.00;102442.22;10107356;28;20057;-72
2022/03/09 01:13:53;;;;;;;9.43;4.65;;;;;;;2.58;100.00;102431.72;10095850;28;20054;-72
2022/03/09 01:18:50;;;;;;;7.90;4.13;;;;;;;2.50;100.00;102431.97;10110708;28;20063;-72
2022/03/09 01:23:47;;;;;;;8.93;4.32;;;;;;;2.43;100.00;102434.75;10102051;28;20097;-72
2022/03/09 01:28:43;;;;;;;8.57;4.50;;;;;;;2.37;100.00;102432.09;10103039;28;20042;-69
2022/03/09 01:33:39;;;;;;;10.60;4.65;;;;;;;2.28;100.00;102429.69;10102033;28;20035;-72
2022/03/09 01:38:36;;;;;;;10.52;4.60;;;;;;;2.23;100.00;102421.44;10095437;28;20849;-70
2022/03/09 01:43:33;;;;;;;10.70;4.43;;;;;;;2.22;100.00;102419.75;10124619;28;20465;-70
2022/03/09 01:48:29;;;;;;;10.30;4.85;;;;;;;2.15;100.00;102424.38;10092989;28;20574;-69
2022/03/09 01:53:26;;;;;;;8.43;4.60;;;;;;;2.13;100.00;102426.47;10118900;28;20102;-70
2022/03/09 01:58:23;;;;;;;13.02;4.70;;;;;;;2.08;100.00;102423.63;10106369;28;20054;-69
2022/03/09 05:39:25;;;;;;;11.75;5.95;;;;;;;0.35;100.00;102435.06;10987445;23;20051;-66
2022/03/09 05:44:21;;;;;;;9.30;4.65;;;;;;;0.26;100.00;102436.31;10132854;28;20085;-68
2022/03/09 05:49:18;;;;;;;11.70;5.13;;;;;;;0.54;100.00;102444.97;10124889;28;20404;-66
2022/03/09 05:54:14;;;;;;;9.13;5.05;;;;;;;0.59;100.00;102447.88;10123119;28;20121;-67
2022/03/09 05:59:14;;;;;;;11.75;4.93;;;;;;;0.65;100.00;102450.75;10122462;28;20097;-66
2022/03/09 06:04:10;;;;;;;12.15;5.15;;;;;;;0.57;100.00;102449.94;10128524;28;20125;-68
2022/03/09 06:09:07;;;;;;;16.17;5.45;;;;;;;0.43;100.00;102444.78;10119356;28;20688;-69
2022/03/09 06:14:03;;;;;;;11.52;5.85;;;;;;;0.36;100.00;102458.22;10124661;28;20571;-69
2022/03/09 06:19:00;;;;;;;10.27;5.65;;;;;;;0.35;100.00;102461.97;10123534;28;20128;-68
2022/03/09 06:23:57;;;;;;;11.45;5.22;;;;;;;0.37;100.00;102462.56;10116064;28;20050;-68
2022/03/09 06:28:54;;;;;;;13.88;4.93;;;;;;;0.35;100.00;102472.72;10111440;28;20077;-68
2022/03/09 06:33:51;;;;;;;11.48;5.97;;;;;;;0.39;100.00;102473.94;10117495;28;20120;-68
2022/03/09 06:38:48;;;;;;;9.32;4.85;;;;;;;0.41;100.00;102474.56;10123405;28;20077;-69
2022/03/09 06:43:45;;;;;;;9.65;4.78;;;;;;;0.40;100.00;102467.56;10113317;28;20086;-69
2022/03/09 06:48:42;;;;;;;13.20;5.53;;;;;;;0.48;100.00;102467.34;10114673;28;20665;-68
2022/03/09 06:53:38;;;;;;;9.13;4.53;;;;;;;0.47;100.00;102465.69;10113320;28;20101;-71
2022/03/09 06:58:35;;;;;;;10.02;5.32;;;;;;;0.56;100.00;102464.44;10128761;28;20134;-71
2022/03/09 07:03:31;;;;;;;13.23;5.93;;;;;;;0.69;100.00;102468.16;10111916;28;20105;-70
2022/03/09 07:08:28;;;;;;;12.45;5.22;;;;;;;0.76;100.00;102475.19;10142023;28;20054;-71
2022/03/09 07:13:26;;;;;;;12.07;4.55;;;;;;;0.84;100.00;102484.91;10135332;28;20475;-71
2022/03/09 07:18:22;;;;;;;17.42;5.60;;;;;;;0.97;100.00;102486.75;10110833;28;20062;-71
2022/03/09 07:23:19;;;;;;;13.95;5.00;;;;;;;1.05;100.00;102494.63;10112047;28;20516;-71
2022/03/09 07:28:15;;;;;;;11.23;5.38;;;;;;;1.21;100.00;102487.97;10134080;28;20067;-71
2022/03/09 07:33:11;;;;;;;10.32;5.22;;;;;;;1.49;100.00;102494.91;10120977;28;20074;-71
2022/03/09 07:38:10;;;;;;;10.95;5.40;;;;;;;1.48;100.00;102488.66;10112999;28;20113;-70
2022/03/09 07:43:06;;;;;;;10.07;5.65;;;;;;;1.67;100.00;102486.94;10111924;28;20046;-71
2022/03/09 07:48:03;;;;;;;12.25;5.00;;;;;;;1.76;100.00;102496.44;10113139;28;20042;-71
2022/03/09 07:52:59;;;;;;;12.95;4.43;;;;;;;1.93;100.00;102495.91;10111496;28;20058;-70
2022/03/09 07:57:56;;;;;;;10.65;4.70;;;;;;;2.03;100.00;102499.00;10139446;28;20054;-71
2022/03/09 08:02:53;;;;;;;11.60;4.95;;;;;;;2.18;100.00;102494.13;10151001;28;20074;-71
2022/03/09 08:08:10;;;;;;;12.30;5.55;;;;;;;2.37;100.00;102502.28;10130605;28;20053;-71
2022/03/09 08:13:06;;;;;;;8.90;4.43;;;;;;;2.54;100.00;102503.41;10146170;28;20043;-70
2022/03/09 08:18:04;;;;;;;9.63;4.57;;;;;;;2.71;100.00;102500.97;10109577;28;20063;-71
2022/03/09 08:23:00;;;;;;;9.63;4.45;;;;;;;2.84;100.00;102503.56;10110472;28;20051;-71
2022/03/09 08:27:58;;;;;;;9.98;4.75;;;;;;;3.06;100.00;102503.13;10115941;28;20517;-70
2022/03/09 08:32:55;;;;;;;8.75;4.13;;;;;;;3.19;100.00;102510.28;10118923;28;20043;-70
2022/03/09 08:37:51;;;;;;;6.97;4.05;;;;;;;3.36;100.00;102511.34;10116926;28;20081;-70
2022/03/09 08:42:48;;;;;;;9.07;3.97;;;;;;;3.54;100.00;102524.84;10118077;28;20464;-71
2022/03/09 08:47:47;;;;;;;10.93;4.18;;;;;;;3.70;100.00;102518.00;10120063;28;20056;-71
2022/03/09 08:52:44;;;;;;;11.13;3.75;;;;;;;3.93;100.00;102517.28;10117705;28;20046;-71
2022/03/09 08:57:40;;;;;;;11.80;4.15;;;;;;;4.18;100.00;102513.63;10120547;28;20050;-70
2022/03/09 09:02:37;;;;;;;10.20;4.85;;;;;;;4.47;100.00;102527.34;10117790;28;20090;-71
2022/03/09 09:07:33;;;;;;;8.95;4.45;;;;;;;4.84;100.00;102523.38;10115845;28;20051;-70
2022/03/09 09:12:30;;;;;;;11.48;4.60;;;;;;;5.12;100.00;102519.16;10117100;28;20141;-71
2022/03/09 09:17:26;;;;;;;9.18;3.80;;;;;;;5.36;100.00;102519.09;10115258;28;20051;-71
2022/03/09 09:22:34;;;;;;;8.63;3.55;;;;;;;5.64;97.14;102516.47;10116884;28;20054;-71
2022/03/09 09:27:53;;;;;;;12.18;4.10;;;;;;;5.82;96.57;102511.91;10115840;28;20133;-71
2022/03/09 09:32:50;;;;;;;7.45;4.13;;;;;;;6.02;94.51;102512.34;10116353;28;20632;-70
2022/03/09 09:37:47;;;;;;;8.38;4.40;;;;;;;6.07;85.22;102520.56;10114050;28;20047;-71
2022/03/09 09:42:43;;;;;;;8.45;4.00;;;;;;;6.35;86.73;102516.19;10116096;28;20093;-70
2022/03/09 09:47:50;;;;;;;9.93;3.88;;;;;;;6.54;82.82;102519.47;10117431;28;20062;-71
2022/03/09 09:52:47;;;;;;;7.78;4.18;;;;;;;6.86;82.88;102510.75;10115628;28;20134;-71
2022/03/09 09:57:46;;;;;;;7.57;4.43;;;;;;;7.15;81.34;102519.63;10114123;28;20106;-71
2022/03/09 10:02:43;;;;;;;10.23;4.70;;;;;;;7.30;78.25;102517.09;10115048;28;20491;-71
2022/03/09 10:08:06;;;;;;;19.40;8.30;;;;;;;7.47;77.63;102516.22;10112518;28;20106;-71
2022/03/09 10:13:21;;;;;;;9.02;3.72;;;;;;;7.97;76.81;102509.72;10114092;28;20046;-70
2022/03/09 10:18:22;;;;;;;9.85;4.78;;;;;;;8.46;69.96;102517.84;10143104;28;20133;-71
2022/03/09 10:23:21;;;;;;;12.65;4.38;;;;;;;8.94;64.52;102510.59;10154114;28;20161;-70
2022/03/09 10:28:18;;;;;;;9.82;4.05;;;;;;;9.21;54.55;102512.38;10114229;28;20100;-71
2022/03/09 10:33:15;;;;;;;8.05;4.38;;;;;;;9.32;57.85;102508.63;10114054;28;20456;-71
2022/03/09 10:38:14;;;;;;;11.48;3.92;;;;;;;9.35;55.62;102519.03;10111715;28;20086;-70
2022/03/09 10:43:25;;;;;;;10.30;4.47;;;;;;;9.51;57.83;102511.69;10113566;28;20457;-71
2022/03/09 10:48:21;;;;;;;11.80;4.60;;;;;;;9.35;59.44;102508.09;10115120;28;20098;-70
2022/03/09 10:53:18;;;;;;;7.90;3.95;;;;;;;9.53;54.16;102514.16;10112427;28;20050;-70
2022/03/09 10:58:19;;;;;;;9.95;4.57;;;;;;;9.87;53.77;102515.38;10149274;28;20105;-70
2022/03/09 11:03:18;;;;;;;9.13;4.03;;;;;;;10.44;53.03;102512.75;10127819;28;20142;-71
2022/03/09 11:08:15;;;;;;;8.18;4.70;;;;;;;10.65;49.40;102513.56;10111282;28;20051;-70
2022/03/09 11:13:13;;;;;;;15.30;4.45;;;;;;;11.00;47.11;102520.09;10128173;28;20139;-70
2022/03/09 11:18:17;;;;;;;10.77;4.90;;;;;;;11.30;46.17;102502.78;10113325;28;20468;-70
2022/03/09 11:23:15;;;;;;;8.85;4.88;;;;;;;11.22;44.03;102500.63;10111972;28;20563;-70
2022/03/09 11:28:12;;;;;;;8.77;4.60;;;;;;;11.15;44.23;102499.00;10120279;28;20070;-70
2022/03/09 11:33:34;;;;;;;10.07;4.38;;;;;;;11.15;42.40;102489.97;10111809;28;20109;-70
2022/03/09 11:38:34;;;;;;;7.75;3.80;;;;;;;11.26;41.70;102485.28;10110038;28;20082;-70
2022/03/09 11:43:30;;;;;;;8.20;4.50;;;;;;;11.43;40.27;102484.94;10115065;28;20691;-71
2022/03/09 11:48:56;;;;;;;9.40;4.90;;;;;;;12.09;40.75;102475.53;10122295;28;20133;-70
2022/03/09 11:53:58;;;;;;;7.10;4.07;;;;;;;12.46;38.70;102476.91;10113342;28;20057;-70
2022/03/09 11:59:11;;;;;;;7.75;4.80;;;;;;;12.56;36.59;102472.16;10141501;28;20046;-70
2022/03/09 12:04:40;;;;;;;7.20;4.05;;;;;;;12.85;36.89;102472.13;10136009;28;20078;-70
2022/03/09 12:09:55;;;;;;;6.68;3.72;;;;;;;13.14;35.20;102473.22;10138081;28;20042;-69
2022/03/09 12:14:59;;;;;;;10.95;4.45;;;;;;;13.31;35.46;102470.03;10135202;28;20081;-70
2022/03/09 12:20:18;;;;;;;7.20;4.30;;;;;;;14.09;33.99;102472.22;10144542;28;20045;-70
2022/03/09 12:25:46;;;;;;;14.73;4.43;;;;;;;14.85;31.07;102461.06;10143041;28;20051;-70
2022/03/09 12:30:43;;;;;;;8.85;4.32;;;;;;;15.51;29.26;102463.56;10109534;28;20039;-70
2022/03/09 12:35:39;;;;;;;8.82;4.15;;;;;;;15.43;26.53;102464.28;10121027;28;20500;-71
2022/03/09 12:40:37;;;;;;;6.28;3.85;;;;;;;16.23;26.45;102457.25;10109199;28;20047;-70
2022/03/09 12:45:53;;;;;;;8.38;3.50;;;;;;;16.98;25.74;102455.53;10124967;28;20078;-71
2022/03/09 12:50:50;;;;;;;7.10;4.10;;;;;;;17.73;25.61;102450.03;10109708;28;20058;-72
2022/03/09 12:55:48;;;;;;;7.90;4.00;;;;;;;18.05;24.47;102456.22;10117807;28;20042;-70
2022/03/09 13:00:44;;;;;;;8.73;4.22;;;;;;;18.89;23.79;102454.78;10108927;28;20461;-70
2022/03/09 13:05:41;;;;;;;7.82;4.70;;;;;;;19.43;24.02;102442.25;10121372;28;20047;-70
2022/03/09 13:10:45;;;;;;;10.23;4.50;;;;;;;20.07;23.25;102438.31;10143734;28;20504;-71
2022/03/09 13:15:51;;;;;;;7.43;4.88;;;;;;;20.25;21.37;102438.97;10122503;28;20841;-70
2022/03/09 13:21:07;;;;;;;9.18;4.28;;;;;;;20.55;21.63;102428.50;10132750;28;20047;-70
2022/03/09 13:26:20;;;;;;;8.23;4.75;;;;;;;20.92;20.92;102428.56;10119850;28;20070;-70
2022/03/09 13:31:17;;;;;;;6.28;4.07;;;;;;;21.13;21.04;102412.56;10116350;28;20054;-70
2022/03/09 13:36:16;;;;;;;6.68;4.30;;;;;;;21.54;19.80;102416.22;10119497;28;20057;-70
2022/03/09 13:41:13;;;;;;;7.22;4.47;;;;;;;20.72;19.90;102417.19;10115451;28;20131;-70
2022/03/09 13:46:18;;;;;;;8.27;4.13;;;;;;;21.09;19.00;102421.94;10134657;28;20046;-71
2022/03/09 13:51:31;;;;;;;9.05;4.50;;;;;;;21.30;20.89;102410.69;10155447;28;20500;-70
2022/03/09 13:56:28;;;;;;;6.95;4.20;;;;;;;21.15;19.87;102417.78;10141680;28;20397;-70
2022/03/09 14:01:31;;;;;;;6.40;4.05;;;;;;;20.91;20.06;102405.53;10154802;28;20500;-70
2022/03/09 14:06:29;;;;;;;8.30;4.50;;;;;;;21.01;20.34;102418.13;10140220;28;20133;-71
2022/03/09 14:11:27;;;;;;;6.68;4.13;;;;;;;21.39;19.56;102408.56;10114980;28;20047;-70
2022/03/09 14:16:25;;;;;;;6.10;4.03;;;;;;;21.54;18.94;102405.09;10127780;28;20080;-70
2022/03/09 14:21:22;;;;;;;6.88;4.03;;;;;;;21.21;18.13;102414.41;10138915;28;20489;-71
2022/03/09 14:26:20;;;;;;;6.60;3.85;;;;;;;21.15;19.17;102407.47;10130290;28;20224;-70
2022/03/09 14:31:17;;;;;;;7.03;4.25;;;;;;;20.94;19.81;102409.56;10146758;28;20097;-71
2022/03/09 14:36:15;;;;;;;6.55;4.20;;;;;;;20.62;21.65;102403.75;10124238;28;20183;-71
2022/03/09 14:41:13;;;;;;;8.10;4.03;;;;;;;20.44;21.34;102407.88;10111724;28;20051;-71
2022/03/09 14:46:10;;;;;;;9.63;4.80;;;;;;;20.23;22.28;102413.50;10122692;28;20066;-71
2022/03/09 14:51:07;;;;;;;7.65;3.95;;;;;;;19.90;23.43;102403.22;10113340;28;20046;-71
2022/03/09 14:56:11;;;;;;;9.57;5.15;;;;;;;19.60;23.11;102396.91;10130193;28;20050;-71
2022/03/09 15:01:08;;;;;;;9.20;4.82;;;;;;;19.64;22.09;102393.13;10152005;28;20104;-71
2022/03/09 15:06:05;;;;;;;7.80;4.63;;;;;;;20.33;22.36;102391.66;10137738;28;20100;-71
2022/03/09 15:11:02;;;;;;;5.88;4.03;;;;;;;20.48;23.39;102381.03;10151952;28;20042;-71
2022/03/09 15:15:58;;;;;;;7.50;4.85;;;;;;;20.52;23.11;102381.97;10130812;28;20054;-71
2022/03/09 15:20:55;;;;;;;7.85;4.32;;;;;;;20.51;24.36;102374.78;10151304;28;20050;-71
2022/03/09 15:25:52;;;;;;;7.85;4.80;;;;;;;20.11;24.09;102372.63;10111546;28;20134;-71
2022/03/09 15:30:48;;;;;;;8.68;4.07;;;;;;;19.36;25.14;102380.97;10111479;28;20042;-71
2022/03/09 15:35:45;;;;;;;9.77;4.60;;;;;;;18.65;24.69;102380.50;10120278;28;20042;-71
2022/03/09 15:40:45;;;;;;;8.32;4.50;;;;;;;17.82;26.32;102381.72;10130359;28;20051;-70
2022/03/09 15:45:42;;;;;;;7.70;4.45;;;;;;;17.32;27.75;102390.44;10120723;28;20043;-71
2022/03/09 15:50:40;;;;;;;7.88;4.43;;;;;;;16.67;28.59;102380.19;10120366;28;20054;-70
2022/03/09 15:55:37;;;;;;;8.73;4.47;;;;;;;16.98;29.38;102388.44;10119292;28;20069;-70
2022/03/09 16:00:33;;;;;;;8.52;4.28;;;;;;;17.35;29.35;102378.75;10112295;28;20089;-71
2022/03/09 16:05:31;;;;;;;7.95;4.57;;;;;;;17.82;29.56;102384.50;10127281;28;20046;-71
2022/03/09 16:10:27;;;;;;;8.93;4.90;;;;;;;18.20;28.64;102397.59;10108939;28;20043;-71
2022/03/09 16:15:24;;;;;;;9.85;4.20;;;;;;;17.94;28.47;102396.81;10110565;28;20117;-71
2022/03/09 16:20:21;;;;;;;8.90;4.20;;;;;;;17.16;29.75;102409.44;10110026;28;21757;-71
2022/03/09 16:25:19;;;;;;;7.00;3.95;;;;;;;16.62;30.82;102406.78;10122087;28;20050;-71
2022/03/09 16:30:15;;;;;;;7.47;3.60;;;;;;;15.93;31.82;102403.63;10111621;28;20050;-71
2022/03/09 16:35:12;;;;;;;8.43;4.15;;;;;;;15.46;32.66;102408.56;10132113;28;20090;-71
2022/03/09 16:40:10;;;;;;;9.48;4.18;;;;;;;14.79;33.37;102409.94;10145837;28;20058;-71
2022/03/09 16:45:11;;;;;;;8.43;4.85;;;;;;;14.03;33.03;102407.41;10122452;28;20085;-71
2022/03/09 16:50:09;;;;;;;7.82;4.38;;;;;;;14.07;35.05;102407.63;10135071;28;20058;-71
2022/03/09 16:55:06;;;;;;;7.93;4.15;;;;;;;13.76;34.07;102418.28;10121842;28;20463;-70
2022/03/09 17:00:08;;;;;;;8.43;4.18;;;;;;;13.52;35.66;102413.69;10122779;28;20046;-70
2022/03/09 17:05:05;;;;;;;8.93;5.05;;;;;;;13.11;34.85;102419.69;10129297;28;20093;-70
2022/03/09 17:10:04;;;;;;;7.53;4.50;;;;;;;12.93;36.00;102428.69;10152306;28;20160;-69
2022/03/09 17:15:01;;;;;;;7.90;4.72;;;;;;;12.55;35.84;102423.03;10155323;28;20126;-70
2022/03/09 17:19:57;;;;;;;9.88;4.35;;;;;;;12.39;37.49;102428.69;10120077;28;20055;-71
2022/03/09 17:24:54;;;;;;;8.77;4.57;;;;;;;12.16;37.56;102432.16;10142941;28;20082;-70
2022/03/09 17:29:51;;;;;;;8.18;4.18;;;;;;;12.02;37.86;102442.16;10148873;28;20120;-71
2022/03/09 17:34:47;;;;;;;8.27;4.57;;;;;;;11.91;39.07;102436.75;10127453;28;20058;-71
2022/03/09 17:39:46;;;;;;;6.70;3.85;;;;;;;11.73;40.36;102446.41;10117237;28;20051;-70
2022/03/09 17:44:42;;;;;;;7.93;4.20;;;;;;;11.53;41.10;102452.84;10127728;28;20085;-70
2022/03/09 17:49:39;;;;;;;8.70;5.05;;;;;;;11.36;42.26;102463.34;10149532;28;20520;-70
2022/03/09 17:54:35;;;;;;;7.38;4.13;;;;;;;11.14;41.52;102467.25;10150539;28;20046;-70
2022/03/09 17:59:33;;;;;;;7.72;4.10;;;;;;;10.97;45.21;102472.22;10145601;28;20137;-69
2022/03/09 18:04:32;;;;;;;7.63;4.40;;;;;;;10.91;43.96;102484.28;10147048;28;20096;-70
2022/03/09 18:09:29;;;;;;;9.90;5.03;;;;;;;10.66;45.26;102487.88;10145461;28;20043;-70
2022/03/09 18:14:25;;;;;;;9.18;5.10;;;;;;;10.60;47.30;102489.78;10151508;28;20564;-70
2022/03/09 18:19:22;;;;;;;9.75;5.05;;;;;;;10.40;47.22;102495.28;10130556;28;20857;-70
2022/03/09 18:24:19;;;;;;;8.02;4.60;;;;;;;10.28;49.66;102488.16;10139464;28;20070;-70
2022/03/09 18:29:15;;;;;;;9.10;4.95;;;;;;;10.16;50.52;102490.28;10132950;28;20110;-70
2022/03/09 18:34:16;;;;;;;8.98;5.20;;;;;;;9.98;51.44;102493.53;10119572;28;20160;-70
2022/03/09 18:39:13;;;;;;;10.18;5.00;;;;;;;9.96;51.54;102493.00;10128410;28;20047;-70
2022/03/09 18:44:09;;;;;;;10.55;5.47;;;;;;;9.76;50.95;102505.50;10118113;28;20558;-70
2022/03/09 18:49:06;;;;;;;7.85;4.75;;;;;;;9.74;56.84;102509.59;10120133;28;20097;-71
2022/03/09 18:54:02;;;;;;;8.93;4.93;;;;;;;9.57;55.25;102505.19;10117216;28;20093;-70
2022/03/09 18:58:59;;;;;;;10.35;5.32;;;;;;;9.48;55.62;102502.13;10124377;28;20046;-70
2022/03/09 19:03:55;;;;;;;8.57;5.22;;;;;;;9.30;60.78;102499.88;10115229;28;20050;-70
2022/03/09 19:08:52;;;;;;;10.70;5.57;;;;;;;9.18;61.89;102499.25;10142643;28;20054;-70
2022/03/09 19:13:49;;;;;;;11.55;6.13;;;;;;;9.04;59.94;102497.00;10136573;28;20476;-70
2022/03/09 19:18:45;;;;;;;11.68;5.85;;;;;;;8.92;61.94;102499.13;10110941;28;20908;-70
2022/03/09 19:23:42;;;;;;;9.00;5.57;;;;;;;8.79;62.41;102505.00;10125662;28;20475;-70
2022/03/09 19:28:38;;;;;;;12.10;6.57;;;;;;;8.63;62.89;102506.81;10142323;28;20077;-70
2022/03/09 19:33:35;;;;;;;12.45;6.75;;;;;;;8.46;63.70;102501.50;10118776;28;20073;-70
2022/03/09 19:38:31;;;;;;;11.45;6.93;;;;;;;8.40;69.17;102507.97;10131607;28;20512;-70
2022/03/09 19:43:28;;;;;;;15.32;6.45;;;;;;;8.33;71.29;102510.91;10114869;28;20042;-69
2022/03/09 19:48:24;;;;;;;10.15;5.82;;;;;;;8.27;68.21;102516.56;10144178;28;20186;-70
2022/03/09 19:53:21;;;;;;;12.85;7.30;;;;;;;8.17;73.00;102518.13;10150402;28;20496;-70
2022/03/09 19:58:20;;;;;;;14.15;6.72;;;;;;;8.10;76.98;102520.22;10119308;28;20160;-70
2022/03/09 20:03:17;;;;;;;10.48;6.30;;;;;;;7.96;76.95;102518.97;10110768;28;20101;-70
2022/03/09 20:08:13;;;;;;;11.80;6.75;;;;;;;7.82;79.13;102528.63;10139159;28;20539;-70
2022/03/09 20:13:10;;;;;;;11.10;6.13;;;;;;;7.74;79.06;102530.72;10145054;28;20054;-70
2022/03/09 20:18:06;;;;;;;13.18;6.38;;;;;;;7.63;79.88;102537.09;10141039;28;20050;-70
2022/03/09 20:23:03;;;;;;;11.93;6.72;;;;;;;7.62;78.64;102540.09;10141211;28;20039;-70
2022/03/09 20:28:00;;;;;;;13.65;6.82;;;;;;;7.44;81.55;102544.75;10126175;28;20627;-71
2022/03/09 20:32:56;;;;;;;12.40;7.07;;;;;;;7.30;84.47;102555.19;10135031;28;20043;-70
2022/03/09 20:37:53;;;;;;;12.57;6.80;;;;;;;7.30;85.16;102555.19;10120871;28;20078;-70
2022/03/09 20:42:49;;;;;;;15.23;7.03;;;;;;;7.17;84.15;102550.09;10123632;28;20090;-68
2022/03/09 20:47:46;;;;;;;13.88;7.13;;;;;;;7.13;86.89;102555.22;10123464;28;20552;-69
2022/03/09 20:52:43;;;;;;;10.60;6.63;;;;;;;7.06;86.54;102564.63;10127630;28;20054;-68
2022/03/09 20:57:39;;;;;;;12.88;6.60;;;;;;;6.93;87.08;102572.03;10129255;28;20841;-68
2022/03/09 21:02:40;;;;;;;10.93;6.55;;;;;;;6.90;89.55;102567.09;10127502;28;20475;-69
2022/03/09 21:07:40;;;;;;;11.32;6.28;;;;;;;6.80;90.32;102572.41;10125356;28;20061;-65
2022/03/09 21:12:38;;;;;;;12.90;6.47;;;;;;;6.68;90.13;102558.03;10131868;28;20061;-71
2022/03/09 21:17:35;;;;;;;12.10;6.70;;;;;;;6.51;92.60;102564.28;10149724;28;20535;-71
2022/03/09 21:22:32;;;;;;;13.10;6.90;;;;;;;6.42;91.38;102563.03;10145378;28;20475;-68
2022/03/09 21:27:28;;;;;;;12.63;7.47;;;;;;;6.43;92.92;102561.13;10150047;28;20138;-69
2022/03/09 21:32:25;;;;;;;12.50;7.05;;;;;;;6.40;94.92;102573.31;10129042;28;20625;-69
2022/03/09 21:37:21;;;;;;;11.45;6.50;;;;;;;6.38;93.40;102563.75;10131684;28;20111;-69
2022/03/09 21:42:18;;;;;;;10.07;6.35;;;;;;;6.32;95.55;102565.59;10152115;28;20047;-70
2022/03/09 21:47:14;;;;;;;14.18;6.65;;;;;;;6.22;94.43;102576.25;10142551;28;20106;-70
2022/03/09 21:52:13;;;;;;;12.10;6.53;;;;;;;6.15;98.48;102578.28;10154208;28;20046;-70
2022/03/09 21:57:09;;;;;;;12.30;7.40;;;;;;;6.12;98.83;102576.88;10147245;28;20551;-71
2022/03/09 22:02:06;;;;;;;12.05;6.45;;;;;;;6.01;97.97;102586.72;10153294;28;20092;-71
2022/03/09 22:07:03;;;;;;;10.30;5.93;;;;;;;5.88;98.58;102586.97;10140055;28;20129;-68
2022/03/09 22:12:00;;;;;;;11.65;6.32;;;;;;;5.80;100.00;102581.91;10154088;28;20073;-68
2022/03/09 22:16:56;;;;;;;10.90;6.03;;;;;;;5.75;99.10;102582.63;10145210;28;20054;-69
2022/03/09 22:21:54;;;;;;;12.40;5.65;;;;;;;5.76;100.00;102589.72;10153333;28;20046;-69
2022/03/09 22:26:50;;;;;;;10.85;5.97;;;;;;;5.68;100.00;102592.78;10151487;28;20133;-68
2022/03/09 22:31:48;;;;;;;12.80;5.70;;;;;;;5.66;100.00;102603.91;10158208;28;20077;-69
2022/03/09 22:36:44;;;;;;;10.38;5.88;;;;;;;5.52;100.00;102620.66;10151407;28;20069;-69
2022/03/09 22:42:01;;;;;;;15.07;6.60;;;;;;;5.49;100.00;102611.09;10152805;28;20064;-69
2022/03/09 22:46:57;;;;;;;11.35;5.80;;;;;;;5.41;100.00;102614.19;10154454;28;20140;-69
2022/03/09 22:51:54;;;;;;;10.73;5.53;;;;;;;5.52;100.00;102613.34;10158503;28;20125;-68
2022/03/09 22:56:50;;;;;;;11.98;5.50;;;;;;;5.38;100.00;102617.34;10153513;28;20580;-68
2022/03/09 23:01:48;;;;;;;9.88;5.40;;;;;;;5.35;100.00;102624.09;10170344;28;20042;-67
2022/03/09 23:06:44;;;;;;;10.20;5.80;;;;;;;5.20;100.00;102624.56;10143037;28;20042;-66
2022/03/09 23:11:41;;;;;;;12.50;5.45;;;;;;;5.24;100.00;102625.75;10149561;28;20507;-66
2022/03/09 23:16:38;;;;;;;11.23;5.57;;;;;;;5.19;100.00;102628.31;10148659;28;20137;-66
2022/03/09 23:21:34;;;;;;;10.65;4.88;;;;;;;5.05;100.00;102621.47;10164544;28;20412;-67
2022/03/09 23:26:31;;;;;;;9.32;5.10;;;;;;;5.04;100.00;102633.38;10132702;28;20574;-67
2022/03/09 23:31:28;;;;;;;10.55;5.53;;;;;;;5.01;100.00;102631.97;10162061;28;20050;-67
2022/03/09 23:36:25;;;;;;;10.90;4.70;;;;;;;5.01;100.00;102631.13;10146864;28;20105;-67
2022/03/09 23:41:21;;;;;;;12.05;6.07;;;;;;;5.04;100.00;102636.09;10156527;28;20172;-67
2022/03/09 23:46:17;;;;;;;12.05;5.18;;;;;;;4.89;100.00;102636.53;10141640;28;20046;-67
2022/03/09 23:51:14;;;;;;;11.40;5.07;;;;;;;4.88;100.00;102648.44;10155517;28;20050;-67
2022/03/09 23:56:10;;;;;;;8.82;4.70;;;;;;;4.86;100.00;102647.84;10148501;28;20077;-67
